Uacc Ibn Al Atheer — HPBI — position and weather

sailwx.info

Track history (hours):
 
Tides and Currents Weather Stations Pressure Air Temp Water Temp Dewpoint Dewpoint Depression Visibility Wind Speed Wind Dir Waves Ship Positions

Uacc Ibn Al Atheer

Last reported at 2017-Jan-19 09:23 UTC. Time now 2017-Feb-20 14:05 UTC.
Position S 28°51' E 033°04'.
Warning: this ship's position is 32 days out of date.

Length 180 m; draft 7.5 m.

Type: Tanker. MMSI: 351616000.

Date/timePositionNaut miles runAvg speedWind from/ knotsBaromVisibWave heightAir tempDewpointWater temp
2017-Jan-19 09:23S 28°51' E 033°04'1311.7
2017-Jan-19 08:17S 29°01' E 032°55'9310.6
2017-Jan-18 23:30S 30°14' E 031°49'10 9.8
2017-Jan-18 22:30S 30°22' E 031°42'10 9.8
2017-Jan-18 21:26S 30°30' E 031°34'6110.3
2017-Jan-18 15:29S 31°18' E 030°50'1010.4
2017-Jan-18 14:32S 31°26' E 030°43'  
2017-Jan-15 19:29S 33°52' E 018°18'8 7.8
2017-Jan-15 18:31S 33°50' E 018°27'0 0.1
2017-Jan-15 17:31S 33°50' E 018°27'0 0.0
2017-Jan-15 16:31S 33°50' E 018°27'0 0.1
2017-Jan-15 15:31S 33°50' E 018°27'0 0.0
2017-Jan-15 14:31S 33°50' E 018°27'0 0.0
2017-Jan-15 13:31S 33°50' E 018°27'0 0.0
2017-Jan-15 12:25S 33°50' E 018°27'0 0.0
2017-Jan-15 11:19S 33°50' E 018°27'0 0.0
2017-Jan-15 10:31S 33°50' E 018°27'0 0.0
2017-Jan-15 09:31S 33°50' E 018°27'0 0.0
2017-Jan-15 08:31S 33°50' E 018°27'0 0.0
2017-Jan-15 07:31S 33°50' E 018°27'0 0.0
2017-Jan-15 06:22S 33°50' E 018°27'0 0.1
2017-Jan-15 05:31S 33°50' E 018°27'0 0.0
2017-Jan-15 04:31S 33°50' E 018°27'0 0.0
2017-Jan-15 03:28S 33°50' E 018°27'0 0.0
2017-Jan-15 02:31S 33°50' E 018°27'0 0.0
2017-Jan-15 01:31S 33°50' E 018°27'0 0.0
2017-Jan-15 00:28S 33°50' E 018°27'0 0.0
2017-Jan-14 23:31S 33°50' E 018°27'0 0.0
2017-Jan-14 22:28S 33°50' E 018°27'0 0.0
2017-Jan-14 21:31S 33°50' E 018°27'0 0.0
2017-Jan-14 20:28S 33°50' E 018°27'0 0.0
2017-Jan-14 19:25S 33°50' E 018°27'0 0.0
2017-Jan-14 18:31S 33°50' E 018°27'0 0.0
2017-Jan-14 17:28S 33°50' E 018°27'0 0.0
2017-Jan-14 16:31S 33°50' E 018°27'0 0.0
2017-Jan-14 15:31S 33°50' E 018°27'0 0.0
2017-Jan-14 14:31S 33°50' E 018°27'0 0.0
2017-Jan-14 13:31S 33°50' E 018°27'0 0.0
2017-Jan-14 11:31S 33°50' E 018°27'0 0.0
2017-Jan-14 10:31S 33°50' E 018°27'0 0.0
2017-Jan-14 09:31S 33°50' E 018°27'0 0.2
2017-Jan-14 08:34S 33°51' E 018°27'4 4.2
2017-Jan-14 07:33S 33°55' E 018°27'0 0.0
2017-Jan-14 06:32S 33°55' E 018°27'0 0.0
2017-Jan-14 05:32S 33°55' E 018°27'0 0.0
2017-Jan-14 04:32S 33°55' E 018°27'0 0.0
2017-Jan-14 03:32S 33°55' E 018°27'0 0.0
2017-Jan-13 23:32S 33°55' E 018°27'0 0.0
2017-Jan-13 22:33S 33°55' E 018°27'0 0.0
2017-Jan-13 21:26S 33°55' E 018°27'0 0.0
2017-Jan-13 20:29S 33°55' E 018°27'0 0.0
2017-Jan-13 19:32S 33°55' E 018°27'0 0.0
2017-Jan-13 18:32S 33°55' E 018°27'0 0.0
2017-Jan-13 17:29S 33°55' E 018°27'0 0.0
2017-Jan-13 16:29S 33°55' E 018°27'0 0.0
2017-Jan-13 15:33S 33°55' E 018°27'0 0.0
2017-Jan-13 14:33S 33°55' E 018°27'0 0.0
2017-Jan-13 13:32S 33°55' E 018°27'0 0.0
2017-Jan-13 12:27S 33°55' E 018°27'0 0.0
2017-Jan-13 11:33S 33°55' E 018°27'0 0.0
2017-Jan-13 10:32S 33°55' E 018°27'0 0.0
2017-Jan-13 09:32S 33°55' E 018°27'0 0.0
2017-Jan-13 08:32S 33°55' E 018°27'0 0.0
2017-Jan-13 07:32S 33°55' E 018°27'0 0.0
2017-Jan-13 06:14S 33°55' E 018°27'0 0.0
2017-Jan-13 05:14S 33°55' E 018°27'0 0.0
2017-Jan-13 04:29S 33°55' E 018°27'0 0.0
2017-Jan-13 03:32S 33°55' E 018°27'0 0.0
2017-Jan-13 02:32S 33°55' E 018°27'0 0.0
2017-Jan-13 01:26S 33°55' E 018°27'0 0.0
2017-Jan-13 00:32S 33°55' E 018°27'0 0.0
2017-Jan-12 23:32S 33°55' E 018°27'0 0.0
2017-Jan-12 22:29S 33°55' E 018°27'0 0.0
2017-Jan-12 21:32S 33°55' E 018°27'0 0.0
2017-Jan-12 20:32S 33°55' E 018°27'0 0.0
2017-Jan-12 19:33S 33°55' E 018°27'0 0.0
2017-Jan-12 18:33S 33°55' E 018°27'0 0.0
2017-Jan-12 17:33S 33°55' E 018°27'0 0.0
2017-Jan-12 16:33S 33°55' E 018°27'0 0.0
2017-Jan-12 15:33S 33°55' E 018°27'0 0.0
2017-Jan-12 14:30S 33°55' E 018°27'0 0.0
2017-Jan-12 13:29S 33°55' E 018°27'0 0.0
2017-Jan-12 12:29S 33°55' E 018°27'0 0.0
2017-Jan-12 11:27S 33°55' E 018°27'0 0.0
2017-Jan-12 10:32S 33°55' E 018°27'0 0.0
2017-Jan-12 09:32S 33°55' E 018°27'0 0.0
2017-Jan-12 08:29S 33°55' E 018°27'0 0.0
2017-Jan-12 07:32S 33°55' E 018°27'0 0.0
2017-Jan-12 06:26S 33°55' E 018°27'0 0.0
2017-Jan-12 05:32S 33°55' E 018°27'0 0.0
2017-Jan-12 04:32S 33°55' E 018°27'0 0.0
2017-Jan-12 03:32S 33°55' E 018°27'0 0.0
2017-Jan-12 02:32S 33°55' E 018°27'0 0.0
2017-Jan-12 01:32S 33°55' E 018°27'0 0.0
2017-Jan-12 00:29S 33°55' E 018°27'0 0.0
2017-Jan-11 23:32S 33°55' E 018°27'0 0.0
2017-Jan-11 22:32S 33°55' E 018°27'0 0.0
2017-Jan-11 21:32S 33°55' E 018°27'0 0.0
2017-Jan-11 20:33S 33°55' E 018°27'0 0.0
2017-Jan-11 19:29S 33°55' E 018°27'0 0.0
2017-Jan-11 18:32S 33°55' E 018°27'0 0.0
2017-Jan-11 17:32S 33°55' E 018°27'0 0.0
2017-Jan-11 16:32S 33°55' E 018°27'0 0.0
2017-Jan-11 15:33S 33°55' E 018°27'0 0.0
2017-Jan-11 14:32S 33°55' E 018°27'0 0.0
2017-Jan-11 13:33S 33°55' E 018°27'0 0.0
2017-Jan-11 12:30S 33°55' E 018°27'0 0.0
2017-Jan-11 11:33S 33°55' E 018°27'0 0.0
2017-Jan-11 10:33S 33°55' E 018°27'0 0.0
2017-Jan-11 09:33S 33°55' E 018°27'0 0.0
2017-Jan-11 08:32S 33°55' E 018°27'0 0.0
2017-Jan-11 07:32S 33°55' E 018°27'0 0.0
2017-Jan-11 06:32S 33°55' E 018°27'0 0.0
2017-Jan-11 05:32S 33°55' E 018°27'0 0.0
2017-Jan-11 04:32S 33°55' E 018°27'0 0.0
2017-Jan-11 03:33S 33°55' E 018°27'0 0.0
2017-Jan-11 02:32S 33°55' E 018°27'0 0.0
2017-Jan-11 01:32S 33°55' E 018°27'0 0.0
2017-Jan-11 00:33S 33°55' E 018°27'0 0.0
2017-Jan-10 23:32S 33°55' E 018°27'0 0.0
2017-Jan-10 22:32S 33°55' E 018°27'0 0.0
2017-Jan-10 21:32S 33°55' E 018°27'0 0.0
2017-Jan-10 20:32S 33°55' E 018°27'0 0.0
2017-Jan-10 19:32S 33°55' E 018°27'0 0.0
2017-Jan-10 18:32S 33°55' E 018°27'0 0.0
2017-Jan-10 17:33S 33°55' E 018°27'0 0.0
2017-Jan-10 16:32S 33°55' E 018°27'0 0.0
2017-Jan-10 15:32S 33°55' E 018°27'0 0.0
2017-Jan-10 14:32S 33°55' E 018°27'0 0.0
2017-Jan-10 13:32S 33°55' E 018°27'0 0.0
2017-Jan-10 12:32S 33°55' E 018°27'0 0.0
2017-Jan-10 11:32S 33°55' E 018°27'0 0.0
2017-Jan-10 10:33S 33°55' E 018°27'0 0.0
2017-Jan-10 09:32S 33°55' E 018°27'0 0.0
2017-Jan-10 08:32S 33°55' E 018°27'0 0.0
2017-Jan-10 07:32S 33°55' E 018°27'0 0.0
2017-Jan-10 06:32S 33°55' E 018°27'0 0.0
2017-Jan-10 05:32S 33°55' E 018°27'0 0.0
2017-Jan-10 04:32S 33°55' E 018°27'0 0.0
2017-Jan-10 03:32S 33°55' E 018°27'0 0.0
2017-Jan-10 02:29S 33°55' E 018°27'0 0.0
2017-Jan-10 01:32S 33°55' E 018°27'0 0.0
2017-Jan-10 00:27S 33°55' E 018°27'0 0.0
2017-Jan-09 23:30S 33°55' E 018°27'0 0.0
2017-Jan-09 22:32S 33°55' E 018°27'0 0.0
2017-Jan-09 21:32S 33°55' E 018°27'0 0.0
2017-Jan-09 20:32S 33°55' E 018°27'0 0.0
2017-Jan-09 19:29S 33°55' E 018°27'0 0.0
2017-Jan-09 18:32S 33°55' E 018°27'0 0.0
2017-Jan-09 17:32S 33°55' E 018°27'0 0.0
2017-Jan-09 16:32S 33°55' E 018°27'0 0.0
2017-Jan-09 15:32S 33°55' E 018°27'0 0.0
2017-Jan-09 12:29S 33°55' E 018°27'0 0.0
2017-Jan-09 11:17S 33°55' E 018°27'0 0.0
2017-Jan-09 10:32S 33°55' E 018°27'  
Track history (hours):
 
Tides and Currents Weather Stations Pressure Air Temp Water Temp Dewpoint Dewpoint Depression Visibility Wind Speed Wind Dir Waves Ship Positions

Uacc Ibn Al Atheer

Last reported at 2017-Jan-19 09:23 UTC. Time now 2017-Feb-20 14:05 UTC.
Position S 28°51' E 033°04'.
Warning: this ship's position is 32 days out of date.

Length 180 m; draft 7.5 m.

Type: Tanker. MMSI: 351616000.

Date/timePositionNaut miles runAvg speedWind from/ knotsBaromVisibWave heightAir tempDewpointWater temp
2017-Jan-19 09:23S 28°51' E 033°04'1311.7
2017-Jan-19 08:17S 29°01' E 032°55'9310.6
2017-Jan-18 23:30S 30°14' E 031°49'10 9.8
2017-Jan-18 22:30S 30°22' E 031°42'10 9.8
2017-Jan-18 21:26S 30°30' E 031°34'6110.3
2017-Jan-18 15:29S 31°18' E 030°50'1010.4
2017-Jan-18 14:32S 31°26' E 030°43'  
2017-Jan-15 19:29S 33°52' E 018°18'8 7.8
2017-Jan-15 18:31S 33°50' E 018°27'0 0.1
2017-Jan-15 17:31S 33°50' E 018°27'0 0.0
2017-Jan-15 16:31S 33°50' E 018°27'0 0.1
2017-Jan-15 15:31S 33°50' E 018°27'0 0.0
2017-Jan-15 14:31S 33°50' E 018°27'0 0.0
2017-Jan-15 13:31S 33°50' E 018°27'0 0.0
2017-Jan-15 12:25S 33°50' E 018°27'0 0.0
2017-Jan-15 11:19S 33°50' E 018°27'0 0.0
2017-Jan-15 10:31S 33°50' E 018°27'0 0.0
2017-Jan-15 09:31S 33°50' E 018°27'0 0.0
2017-Jan-15 08:31S 33°50' E 018°27'0 0.0
2017-Jan-15 07:31S 33°50' E 018°27'0 0.0
2017-Jan-15 06:22S 33°50' E 018°27'0 0.1
2017-Jan-15 05:31S 33°50' E 018°27'0 0.0
2017-Jan-15 04:31S 33°50' E 018°27'0 0.0
2017-Jan-15 03:28S 33°50' E 018°27'0 0.0
2017-Jan-15 02:31S 33°50' E 018°27'0 0.0
2017-Jan-15 01:31S 33°50' E 018°27'0 0.0
2017-Jan-15 00:28S 33°50' E 018°27'0 0.0
2017-Jan-14 23:31S 33°50' E 018°27'0 0.0
2017-Jan-14 22:28S 33°50' E 018°27'0 0.0
2017-Jan-14 21:31S 33°50' E 018°27'0 0.0
2017-Jan-14 20:28S 33°50' E 018°27'0 0.0
2017-Jan-14 19:25S 33°50' E 018°27'0 0.0
2017-Jan-14 18:31S 33°50' E 018°27'0 0.0
2017-Jan-14 17:28S 33°50' E 018°27'0 0.0
2017-Jan-14 16:31S 33°50' E 018°27'0 0.0
2017-Jan-14 15:31S 33°50' E 018°27'0 0.0
2017-Jan-14 14:31S 33°50' E 018°27'0 0.0
2017-Jan-14 13:31S 33°50' E 018°27'0 0.0
2017-Jan-14 11:31S 33°50' E 018°27'0 0.0
2017-Jan-14 10:31S 33°50' E 018°27'0 0.0
2017-Jan-14 09:31S 33°50' E 018°27'0 0.2
2017-Jan-14 08:34S 33°51' E 018°27'4 4.2
2017-Jan-14 07:33S 33°55' E 018°27'0 0.0
2017-Jan-14 06:32S 33°55' E 018°27'0 0.0
2017-Jan-14 05:32S 33°55' E 018°27'0 0.0
2017-Jan-14 04:32S 33°55' E 018°27'0 0.0
2017-Jan-14 03:32S 33°55' E 018°27'0 0.0
2017-Jan-13 23:32S 33°55' E 018°27'0 0.0
2017-Jan-13 22:33S 33°55' E 018°27'0 0.0
2017-Jan-13 21:26S 33°55' E 018°27'0 0.0
2017-Jan-13 20:29S 33°55' E 018°27'0 0.0
2017-Jan-13 19:32S 33°55' E 018°27'0 0.0
2017-Jan-13 18:32S 33°55' E 018°27'0 0.0
2017-Jan-13 17:29S 33°55' E 018°27'0 0.0
2017-Jan-13 16:29S 33°55' E 018°27'0 0.0
2017-Jan-13 15:33S 33°55' E 018°27'0 0.0
2017-Jan-13 14:33S 33°55' E 018°27'0 0.0
2017-Jan-13 13:32S 33°55' E 018°27'0 0.0
2017-Jan-13 12:27S 33°55' E 018°27'0 0.0
2017-Jan-13 11:33S 33°55' E 018°27'0 0.0
2017-Jan-13 10:32S 33°55' E 018°27'0 0.0
2017-Jan-13 09:32S 33°55' E 018°27'0 0.0
2017-Jan-13 08:32S 33°55' E 018°27'0 0.0
2017-Jan-13 07:32S 33°55' E 018°27'0 0.0
2017-Jan-13 06:14S 33°55' E 018°27'0 0.0
2017-Jan-13 05:14S 33°55' E 018°27'0 0.0
2017-Jan-13 04:29S 33°55' E 018°27'0 0.0
2017-Jan-13 03:32S 33°55' E 018°27'0 0.0
2017-Jan-13 02:32S 33°55' E 018°27'0 0.0
2017-Jan-13 01:26S 33°55' E 018°27'0 0.0
2017-Jan-13 00:32S 33°55' E 018°27'0 0.0
2017-Jan-12 23:32S 33°55' E 018°27'0 0.0
2017-Jan-12 22:29S 33°55' E 018°27'0 0.0
2017-Jan-12 21:32S 33°55' E 018°27'0 0.0
2017-Jan-12 20:32S 33°55' E 018°27'0 0.0
2017-Jan-12 19:33S 33°55' E 018°27'0 0.0
2017-Jan-12 18:33S 33°55' E 018°27'0 0.0
2017-Jan-12 17:33S 33°55' E 018°27'0 0.0
2017-Jan-12 16:33S 33°55' E 018°27'0 0.0
2017-Jan-12 15:33S 33°55' E 018°27'0 0.0
2017-Jan-12 14:30S 33°55' E 018°27'0 0.0
2017-Jan-12 13:29S 33°55' E 018°27'0 0.0
2017-Jan-12 12:29S 33°55' E 018°27'0 0.0
2017-Jan-12 11:27S 33°55' E 018°27'0 0.0
2017-Jan-12 10:32S 33°55' E 018°27'0 0.0
2017-Jan-12 09:32S 33°55' E 018°27'0 0.0
2017-Jan-12 08:29S 33°55' E 018°27'0 0.0
2017-Jan-12 07:32S 33°55' E 018°27'0 0.0
2017-Jan-12 06:26S 33°55' E 018°27'0 0.0
2017-Jan-12 05:32S 33°55' E 018°27'0 0.0
2017-Jan-12 04:32S 33°55' E 018°27'0 0.0
2017-Jan-12 03:32S 33°55' E 018°27'0 0.0
2017-Jan-12 02:32S 33°55' E 018°27'0 0.0
2017-Jan-12 01:32S 33°55' E 018°27'0 0.0
2017-Jan-12 00:29S 33°55' E 018°27'0 0.0
2017-Jan-11 23:32S 33°55' E 018°27'0 0.0
2017-Jan-11 22:32S 33°55' E 018°27'0 0.0
2017-Jan-11 21:32S 33°55' E 018°27'0 0.0
2017-Jan-11 20:33S 33°55' E 018°27'0 0.0
2017-Jan-11 19:29S 33°55' E 018°27'0 0.0
2017-Jan-11 18:32S 33°55' E 018°27'0 0.0
2017-Jan-11 17:32S 33°55' E 018°27'0 0.0
2017-Jan-11 16:32S 33°55' E 018°27'0 0.0
2017-Jan-11 15:33S 33°55' E 018°27'0 0.0
2017-Jan-11 14:32S 33°55' E 018°27'0 0.0
2017-Jan-11 13:33S 33°55' E 018°27'0 0.0
2017-Jan-11 12:30S 33°55' E 018°27'0 0.0
2017-Jan-11 11:33S 33°55' E 018°27'0 0.0
2017-Jan-11 10:33S 33°55' E 018°27'0 0.0
2017-Jan-11 09:33S 33°55' E 018°27'0 0.0
2017-Jan-11 08:32S 33°55' E 018°27'0 0.0
2017-Jan-11 07:32S 33°55' E 018°27'0 0.0
2017-Jan-11 06:32S 33°55' E 018°27'0 0.0
2017-Jan-11 05:32S 33°55' E 018°27'0 0.0
2017-Jan-11 04:32S 33°55' E 018°27'0 0.0
2017-Jan-11 03:33S 33°55' E 018°27'0 0.0
2017-Jan-11 02:32S 33°55' E 018°27'0 0.0
2017-Jan-11 01:32S 33°55' E 018°27'0 0.0
2017-Jan-11 00:33S 33°55' E 018°27'0 0.0
2017-Jan-10 23:32S 33°55' E 018°27'0 0.0
2017-Jan-10 22:32S 33°55' E 018°27'0 0.0
2017-Jan-10 21:32S 33°55' E 018°27'0 0.0
2017-Jan-10 20:32S 33°55' E 018°27'0 0.0
2017-Jan-10 19:32S 33°55' E 018°27'0 0.0
2017-Jan-10 18:32S 33°55' E 018°27'0 0.0
2017-Jan-10 17:33S 33°55' E 018°27'0 0.0
2017-Jan-10 16:32S 33°55' E 018°27'0 0.0
2017-Jan-10 15:32S 33°55' E 018°27'0 0.0
2017-Jan-10 14:32S 33°55' E 018°27'0 0.0
2017-Jan-10 13:32S 33°55' E 018°27'0 0.0
2017-Jan-10 12:32S 33°55' E 018°27'0 0.0
2017-Jan-10 11:32S 33°55' E 018°27'0 0.0
2017-Jan-10 10:33S 33°55' E 018°27'0 0.0
2017-Jan-10 09:32S 33°55' E 018°27'0 0.0
2017-Jan-10 08:32S 33°55' E 018°27'0 0.0
2017-Jan-10 07:32S 33°55' E 018°27'0 0.0
2017-Jan-10 06:32S 33°55' E 018°27'0 0.0
2017-Jan-10 05:32S 33°55' E 018°27'0 0.0
2017-Jan-10 04:32S 33°55' E 018°27'0 0.0
2017-Jan-10 03:32S 33°55' E 018°27'0 0.0
2017-Jan-10 02:29S 33°55' E 018°27'0 0.0
2017-Jan-10 01:32S 33°55' E 018°27'0 0.0
2017-Jan-10 00:27S 33°55' E 018°27'0 0.0
2017-Jan-09 23:30S 33°55' E 018°27'0 0.0
2017-Jan-09 22:32S 33°55' E 018°27'0 0.0
2017-Jan-09 21:32S 33°55' E 018°27'0 0.0
2017-Jan-09 20:32S 33°55' E 018°27'0 0.0
2017-Jan-09 19:29S 33°55' E 018°27'0 0.0
2017-Jan-09 18:32S 33°55' E 018°27'0 0.0
2017-Jan-09 17:32S 33°55' E 018°27'0 0.0
2017-Jan-09 16:32S 33°55' E 018°27'0 0.0
2017-Jan-09 15:32S 33°55' E 018°27'0 0.0
2017-Jan-09 12:29S 33°55' E 018°27'0 0.0
2017-Jan-09 11:17S 33°55' E 018°27'0 0.0
2017-Jan-09 10:32S 33°55' E 018°27'  

Dump ship's entire track history